sensor_id;sensor_type;location;lat;lon;timestamp;pressure;altitude;pressure_sealevel;temperature;humidity
44351;BME280;62766;62.622;17.912;2023-04-08T00:02:17;102743.82;;;0.47;43.72
44351;BME280;62766;62.622;17.912;2023-04-08T00:04:45;102746.92;;;0.54;43.85
44351;BME280;62766;62.622;17.912;2023-04-08T00:07:14;102749.60;;;0.47;44.07
44351;BME280;62766;62.622;17.912;2023-04-08T00:09:42;102747.65;;;0.45;44.25
44351;BME280;62766;62.622;17.912;2023-04-08T00:12:11;102741.79;;;0.38;44.29
44351;BME280;62766;62.622;17.912;2023-04-08T00:14:39;102739.82;;;0.51;44.24
44351;BME280;62766;62.622;17.912;2023-04-08T00:17:09;102739.97;;;0.53;44.04
44351;BME280;62766;62.622;17.912;2023-04-08T00:19:38;102741.51;;;0.48;43.74
44351;BME280;62766;62.622;17.912;2023-04-08T00:22:07;102743.54;;;0.60;44.66
44351;BME280;62766;62.622;17.912;2023-04-08T00:24:37;102743.44;;;0.53;44.88
44351;BME280;62766;62.622;17.912;2023-04-08T00:27:05;102740.38;;;0.59;44.86
44351;BME280;62766;62.622;17.912;2023-04-08T00:29:34;102742.26;;;0.43;44.29
44351;BME280;62766;62.622;17.912;2023-04-08T00:32:02;102741.45;;;0.50;44.45
44351;BME280;62766;62.622;17.912;2023-04-08T00:34:31;102739.06;;;0.47;44.60
44351;BME280;62766;62.622;17.912;2023-04-08T00:36:59;102738.07;;;0.46;44.88
44351;BME280;62766;62.622;17.912;2023-04-08T00:39:28;102736.48;;;0.46;45.04
44351;BME280;62766;62.622;17.912;2023-04-08T00:41:56;102741.19;;;0.47;45.35
44351;BME280;62766;62.622;17.912;2023-04-08T00:44:25;102739.09;;;0.35;45.01
44351;BME280;62766;62.622;17.912;2023-04-08T00:46:53;102739.79;;;0.25;45.25
44351;BME280;62766;62.622;17.912;2023-04-08T00:49:22;102740.85;;;0.37;45.80
44351;BME280;62766;62.622;17.912;2023-04-08T00:51:51;102742.57;;;0.30;46.07
44351;BME280;62766;62.622;17.912;2023-04-08T00:54:21;102746.75;;;0.17;45.73
44351;BME280;62766;62.622;17.912;2023-04-08T00:56:49;102741.03;;;-0.03;46.06
44351;BME280;62766;62.622;17.912;2023-04-08T00:59:18;102742.11;;;-0.10;46.13
44351;BME280;62766;62.622;17.912;2023-04-08T01:01:53;102749.38;;;0.02;46.06
44351;BME280;62766;62.622;17.912;2023-04-08T01:04:28;102747.77;;;-0.03;46.36
44351;BME280;62766;62.622;17.912;2023-04-08T01:07:02;102746.48;;;0.09;46.17
44351;BME280;62766;62.622;17.912;2023-04-08T01:09:37;102747.97;;;0.05;45.77
44351;BME280;62766;62.622;17.912;2023-04-08T01:12:08;102750.04;;;0.20;45.54
44351;BME280;62766;62.622;17.912;2023-04-08T01:14:41;102749.65;;;0.12;45.85
44351;BME280;62766;62.622;17.912;2023-04-08T01:17:11;102749.15;;;0.17;46.37
44351;BME280;62766;62.622;17.912;2023-04-08T01:19:40;102749.77;;;0.02;46.07
44351;BME280;62766;62.622;17.912;2023-04-08T01:22:14;102749.84;;;0.14;46.17
44351;BME280;62766;62.622;17.912;2023-04-08T01:24:49;102752.31;;;0.22;46.58
44351;BME280;62766;62.622;17.912;2023-04-08T01:27:19;102749.58;;;0.17;46.33
44351;BME280;62766;62.622;17.912;2023-04-08T01:29:48;102747.47;;;0.25;46.37
44351;BME280;62766;62.622;17.912;2023-04-08T01:32:16;102748.38;;;0.10;46.70
44351;BME280;62766;62.622;17.912;2023-04-08T01:34:44;102747.27;;;0.15;46.42
44351;BME280;62766;62.622;17.912;2023-04-08T01:37:14;102743.52;;;0.04;46.14
44351;BME280;62766;62.622;17.912;2023-04-08T01:39:44;102744.28;;;0.20;45.78
44351;BME280;62766;62.622;17.912;2023-04-08T01:42:14;102740.52;;;0.19;45.22
44351;BME280;62766;62.622;17.912;2023-04-08T01:44:44;102741.89;;;0.23;45.54
44351;BME280;62766;62.622;17.912;2023-04-08T01:47:12;102744.34;;;0.35;45.33
44351;BME280;62766;62.622;17.912;2023-04-08T01:49:43;102744.16;;;0.31;44.90
44351;BME280;62766;62.622;17.912;2023-04-08T01:52:11;102746.03;;;0.46;44.86
44351;BME280;62766;62.622;17.912;2023-04-08T01:54:41;102746.25;;;0.41;45.18
44351;BME280;62766;62.622;17.912;2023-04-08T01:57:14;102739.77;;;0.42;44.87
44351;BME280;62766;62.622;17.912;2023-04-08T01:59:47;102736.27;;;0.22;44.84
44351;BME280;62766;62.622;17.912;2023-04-08T02:02:19;102735.84;;;0.30;44.88
44351;BME280;62766;62.622;17.912;2023-04-08T02:04:47;102735.29;;;0.37;44.68
44351;BME280;62766;62.622;17.912;2023-04-08T02:07:16;102736.45;;;0.39;44.70
44351;BME280;62766;62.622;17.912;2023-04-08T02:09:46;102739.82;;;0.37;44.62
44351;BME280;62766;62.622;17.912;2023-04-08T02:12:15;102738.46;;;0.35;44.24
44351;BME280;62766;62.622;17.912;2023-04-08T02:14:43;102738.80;;;0.37;44.35
44351;BME280;62766;62.622;17.912;2023-04-08T02:17:18;102743.34;;;0.13;44.65
44351;BME280;62766;62.622;17.912;2023-04-08T02:19:55;102740.45;;;0.26;44.64
44351;BME280;62766;62.622;17.912;2023-04-08T02:22:39;102744.38;;;0.15;45.00
44351;BME280;62766;62.622;17.912;2023-04-08T02:25:12;102742.08;;;0.24;45.27
44351;BME280;62766;62.622;17.912;2023-04-08T02:27:43;102742.65;;;0.20;44.97
44351;BME280;62766;62.622;17.912;2023-04-08T02:30:14;102742.79;;;0.12;45.05
44351;BME280;62766;62.622;17.912;2023-04-08T02:32:44;102743.34;;;0.26;44.68
44351;BME280;62766;62.622;17.912;2023-04-08T02:35:16;102748.48;;;0.22;44.93
44351;BME280;62766;62.622;17.912;2023-04-08T02:37:45;102748.05;;;0.18;45.18
44351;BME280;62766;62.622;17.912;2023-04-08T02:40:22;102750.34;;;0.15;45.55
44351;BME280;62766;62.622;17.912;2023-04-08T02:42:51;102751.45;;;0.20;46.05
44351;BME280;62766;62.622;17.912;2023-04-08T02:45:19;102752.65;;;0.09;46.12
44351;BME280;62766;62.622;17.912;2023-04-08T02:47:48;102755.66;;;0.09;45.70
44351;BME280;62766;62.622;17.912;2023-04-08T02:50:16;102761.69;;;-0.01;45.75
44351;BME280;62766;62.622;17.912;2023-04-08T02:52:45;102761.45;;;-0.00;45.57
44351;BME280;62766;62.622;17.912;2023-04-08T02:55:14;102758.43;;;-0.02;45.50
44351;BME280;62766;62.622;17.912;2023-04-08T02:57:42;102757.07;;;-0.15;45.38
44351;BME280;62766;62.622;17.912;2023-04-08T03:00:12;102759.90;;;-0.19;45.28
44351;BME280;62766;62.622;17.912;2023-04-08T03:02:41;102762.64;;;-0.29;46.11
44351;BME280;62766;62.622;17.912;2023-04-08T03:05:10;102761.54;;;-0.28;46.28
44351;BME280;62766;62.622;17.912;2023-04-08T03:07:38;102767.40;;;-0.27;46.46
44351;BME280;62766;62.622;17.912;2023-04-08T03:10:08;102767.36;;;-0.29;46.93
44351;BME280;62766;62.622;17.912;2023-04-08T03:12:37;102766.95;;;-0.50;46.98
44351;BME280;62766;62.622;17.912;2023-04-08T03:15:06;102768.83;;;-0.46;46.63
44351;BME280;62766;62.622;17.912;2023-04-08T03:17:35;102766.25;;;-0.42;46.28
44351;BME280;62766;62.622;17.912;2023-04-08T03:20:05;102768.15;;;-0.48;46.21
44351;BME280;62766;62.622;17.912;2023-04-08T03:22:35;102769.65;;;-0.49;46.20
44351;BME280;62766;62.622;17.912;2023-04-08T03:25:05;102765.75;;;-0.50;46.67
44351;BME280;62766;62.622;17.912;2023-04-08T03:27:35;102769.40;;;-0.41;46.93
44351;BME280;62766;62.622;17.912;2023-04-08T03:30:04;102768.76;;;-0.52;47.28
44351;BME280;62766;62.622;17.912;2023-04-08T03:32:34;102766.90;;;-0.49;46.92
44351;BME280;62766;62.622;17.912;2023-04-08T03:35:02;102766.17;;;-0.52;46.60
44351;BME280;62766;62.622;17.912;2023-04-08T03:37:31;102764.37;;;-0.48;46.77
44351;BME280;62766;62.622;17.912;2023-04-08T03:39:59;102766.93;;;-0.54;46.86
44351;BME280;62766;62.622;17.912;2023-04-08T03:42:28;102766.53;;;-0.46;46.93
44351;BME280;62766;62.622;17.912;2023-04-08T03:44:56;102763.68;;;-0.35;46.82
44351;BME280;62766;62.622;17.912;2023-04-08T03:47:25;102764.72;;;-0.46;46.99
44351;BME280;62766;62.622;17.912;2023-04-08T03:49:53;102770.14;;;-0.49;47.06
44351;BME280;62766;62.622;17.912;2023-04-08T03:52:23;102763.13;;;-0.41;47.25
44351;BME280;62766;62.622;17.912;2023-04-08T03:54:52;102760.11;;;-0.50;46.91
44351;BME280;62766;62.622;17.912;2023-04-08T03:57:21;102759.59;;;-0.45;46.99
44351;BME280;62766;62.622;17.912;2023-04-08T03:59:49;102765.35;;;-0.48;47.29
44351;BME280;62766;62.622;17.912;2023-04-08T04:03:21;102768.33;;;-0.62;47.70
44351;BME280;62766;62.622;17.912;2023-04-08T04:05:49;102770.67;;;-0.67;48.08
44351;BME280;62766;62.622;17.912;2023-04-08T04:08:18;102767.92;;;-0.57;47.91
44351;BME280;62766;62.622;17.912;2023-04-08T04:10:46;102770.35;;;-0.51;47.66
44351;BME280;62766;62.622;17.912;2023-04-08T04:13:15;102774.41;;;-0.49;47.87
44351;BME280;62766;62.622;17.912;2023-04-08T04:15:44;102773.47;;;-0.40;47.81
44351;BME280;62766;62.622;17.912;2023-04-08T04:18:12;102775.31;;;-0.37;47.74
44351;BME280;62766;62.622;17.912;2023-04-08T04:20:41;102771.69;;;-0.45;47.70
44351;BME280;62766;62.622;17.912;2023-04-08T04:23:09;102776.08;;;-0.33;47.78
44351;BME280;62766;62.622;17.912;2023-04-08T04:25:40;102778.14;;;-0.39;47.91
44351;BME280;62766;62.622;17.912;2023-04-08T04:28:08;102780.55;;;-0.51;47.94
44351;BME280;62766;62.622;17.912;2023-04-08T04:30:37;102783.31;;;-0.38;47.90
44351;BME280;62766;62.622;17.912;2023-04-08T04:33:05;102781.30;;;-0.37;47.80
44351;BME280;62766;62.622;17.912;2023-04-08T04:35:33;102773.60;;;-0.33;47.68
44351;BME280;62766;62.622;17.912;2023-04-08T04:38:03;102775.93;;;-0.16;47.62
44351;BME280;62766;62.622;17.912;2023-04-08T04:40:32;102778.10;;;-0.08;47.43
44351;BME280;62766;62.622;17.912;2023-04-08T04:43:01;102778.93;;;0.04;47.32
44351;BME280;62766;62.622;17.912;2023-04-08T04:45:29;102776.62;;;0.14;47.22
44351;BME280;62766;62.622;17.912;2023-04-08T04:47:58;102777.29;;;0.20;47.24
44351;BME280;62766;62.622;17.912;2023-04-08T04:50:26;102784.88;;;0.10;47.47
44351;BME280;62766;62.622;17.912;2023-04-08T04:52:55;102790.21;;;0.00;47.35
44351;BME280;62766;62.622;17.912;2023-04-08T04:55:23;102790.81;;;-0.17;47.78
44351;BME280;62766;62.622;17.912;2023-04-08T04:57:52;102791.06;;;-0.07;47.78
44351;BME280;62766;62.622;17.912;2023-04-08T05:00:20;102786.28;;;-0.04;47.64
44351;BME280;62766;62.622;17.912;2023-04-08T05:02:49;102788.21;;;0.15;47.43
44351;BME280;62766;62.622;17.912;2023-04-08T05:05:17;102783.92;;;0.32;47.38
44351;BME280;62766;62.622;17.912;2023-04-08T05:07:46;102780.10;;;0.49;47.04
44351;BME280;62766;62.622;17.912;2023-04-08T05:10:14;102784.36;;;0.62;46.87
44351;BME280;62766;62.622;17.912;2023-04-08T05:12:43;102780.15;;;0.62;46.92
44351;BME280;62766;62.622;17.912;2023-04-08T05:15:11;102781.73;;;0.66;47.01
44351;BME280;62766;62.622;17.912;2023-04-08T05:17:40;102782.02;;;0.91;46.53
44351;BME280;62766;62.622;17.912;2023-04-08T05:20:09;102781.70;;;1.06;46.18
44351;BME280;62766;62.622;17.912;2023-04-08T05:22:37;102781.61;;;1.28;46.13
44351;BME280;62766;62.622;17.912;2023-04-08T05:25:06;102781.79;;;1.31;46.09
44351;BME280;62766;62.622;17.912;2023-04-08T05:27:34;102783.76;;;1.45;45.84
44351;BME280;62766;62.622;17.912;2023-04-08T05:30:03;102777.90;;;1.47;45.73
44351;BME280;62766;62.622;17.912;2023-04-08T05:32:32;102775.86;;;1.55;45.29
44351;BME280;62766;62.622;17.912;2023-04-08T05:35:02;102768.61;;;1.81;44.94
44351;BME280;62766;62.622;17.912;2023-04-08T05:37:31;102770.66;;;2.02;44.80
44351;BME280;62766;62.622;17.912;2023-04-08T05:39:59;102765.44;;;2.14;44.75
44351;BME280;62766;62.622;17.912;2023-04-08T05:42:28;102767.04;;;2.16;44.48
44351;BME280;62766;62.622;17.912;2023-04-08T05:44:56;102769.03;;;2.41;44.03
44351;BME280;62766;62.622;17.912;2023-04-08T05:47:25;102769.28;;;2.59;43.93
44351;BME280;62766;62.622;17.912;2023-04-08T05:49:53;102767.18;;;2.86;43.71
44351;BME280;62766;62.622;17.912;2023-04-08T05:52:22;102769.87;;;2.96;43.59
44351;BME280;62766;62.622;17.912;2023-04-08T05:54:50;102770.73;;;3.09;42.84
44351;BME280;62766;62.622;17.912;2023-04-08T05:57:19;102772.68;;;3.09;43.35
44351;BME280;62766;62.622;17.912;2023-04-08T05:59:47;102775.46;;;3.09;42.98
44351;BME280;62766;62.622;17.912;2023-04-08T06:02:16;102775.90;;;3.09;42.82
44351;BME280;62766;62.622;17.912;2023-04-08T06:04:44;102772.69;;;3.30;42.84
44351;BME280;62766;62.622;17.912;2023-04-08T06:07:12;102773.49;;;3.52;42.50
44351;BME280;62766;62.622;17.912;2023-04-08T06:09:41;102774.95;;;3.86;42.39
44351;BME280;62766;62.622;17.912;2023-04-08T06:12:09;102772.42;;;4.14;42.00
44351;BME280;62766;62.622;17.912;2023-04-08T06:14:38;102769.59;;;4.27;41.63
44351;BME280;62766;62.622;17.912;2023-04-08T06:17:07;102769.67;;;4.59;41.26
44351;BME280;62766;62.622;17.912;2023-04-08T06:19:35;102773.75;;;4.89;40.85
44351;BME280;62766;62.622;17.912;2023-04-08T06:22:04;102772.64;;;4.89;40.64
44351;BME280;62766;62.622;17.912;2023-04-08T06:24:32;102773.56;;;5.05;40.25
44351;BME280;62766;62.622;17.912;2023-04-08T06:27:00;102777.33;;;5.13;40.02
44351;BME280;62766;62.622;17.912;2023-04-08T06:29:29;102779.01;;;5.37;39.96
44351;BME280;62766;62.622;17.912;2023-04-08T06:31:57;102777.50;;;5.46;39.51
44351;BME280;62766;62.622;17.912;2023-04-08T06:34:25;102768.83;;;5.74;39.18
44351;BME280;62766;62.622;17.912;2023-04-08T06:36:54;102766.59;;;5.75;38.64
44351;BME280;62766;62.622;17.912;2023-04-08T06:39:22;102760.85;;;5.99;38.47
44351;BME280;62766;62.622;17.912;2023-04-08T06:41:51;102762.22;;;5.96;38.05
44351;BME280;62766;62.622;17.912;2023-04-08T06:44:19;102765.73;;;6.06;37.89
44351;BME280;62766;62.622;17.912;2023-04-08T06:46:47;102766.61;;;5.88;37.83
44351;BME280;62766;62.622;17.912;2023-04-08T06:49:16;102766.69;;;5.95;37.69
44351;BME280;62766;62.622;17.912;2023-04-08T06:51:44;102765.80;;;5.97;37.69
44351;BME280;62766;62.622;17.912;2023-04-08T06:54:12;102771.38;;;5.87;37.99
44351;BME280;62766;62.622;17.912;2023-04-08T06:56:41;102778.66;;;5.87;38.21
44351;BME280;62766;62.622;17.912;2023-04-08T06:59:09;102776.72;;;5.85;38.87
44351;BME280;62766;62.622;17.912;2023-04-08T07:01:37;102777.67;;;5.86;38.76
44351;BME280;62766;62.622;17.912;2023-04-08T07:04:06;102777.87;;;6.01;38.77
44351;BME280;62766;62.622;17.912;2023-04-08T07:06:34;102779.86;;;5.90;38.74
44351;BME280;62766;62.622;17.912;2023-04-08T07:09:03;102778.63;;;5.94;38.91
44351;BME280;62766;62.622;17.912;2023-04-08T07:11:33;102777.48;;;6.11;38.78
44351;BME280;62766;62.622;17.912;2023-04-08T07:14:02;102777.90;;;6.15;38.57
44351;BME280;62766;62.622;17.912;2023-04-08T07:16:31;102783.35;;;6.33;38.35
44351;BME280;62766;62.622;17.912;2023-04-08T07:18:59;102784.20;;;6.59;37.90
44351;BME280;62766;62.622;17.912;2023-04-08T07:21:28;102783.09;;;6.54;37.69
44351;BME280;62766;62.622;17.912;2023-04-08T07:23:56;102782.04;;;6.62;37.37
44351;BME280;62766;62.622;17.912;2023-04-08T07:26:25;102781.29;;;6.71;37.31
44351;BME280;62766;62.622;17.912;2023-04-08T07:28:53;102780.89;;;6.80;37.32
44351;BME280;62766;62.622;17.912;2023-04-08T07:31:21;102781.61;;;6.83;37.08
44351;BME280;62766;62.622;17.912;2023-04-08T07:33:49;102780.86;;;6.98;37.21
44351;BME280;62766;62.622;17.912;2023-04-08T07:36:18;102783.75;;;7.07;37.32
44351;BME280;62766;62.622;17.912;2023-04-08T07:38:46;102789.27;;;7.07;37.55
44351;BME280;62766;62.622;17.912;2023-04-08T07:41:15;102789.17;;;7.11;37.65
44351;BME280;62766;62.622;17.912;2023-04-08T07:43:43;102783.65;;;7.03;37.86
44351;BME280;62766;62.622;17.912;2023-04-08T07:46:11;102783.52;;;7.05;37.27
44351;BME280;62766;62.622;17.912;2023-04-08T07:48:39;102782.72;;;7.04;37.30
44351;BME280;62766;62.622;17.912;2023-04-08T07:51:08;102779.00;;;7.01;37.28
44351;BME280;62766;62.622;17.912;2023-04-08T07:53:39;102776.89;;;7.07;37.56
44351;BME280;62766;62.622;17.912;2023-04-08T07:56:10;102775.79;;;7.07;37.59
44351;BME280;62766;62.622;17.912;2023-04-08T07:58:40;102776.99;;;7.23;37.83
44351;BME280;62766;62.622;17.912;2023-04-08T08:01:16;102776.67;;;7.47;38.10
44351;BME280;62766;62.622;17.912;2023-04-08T08:03:45;102776.62;;;7.25;38.34
44351;BME280;62766;62.622;17.912;2023-04-08T08:06:14;102774.19;;;7.34;38.27
44351;BME280;62766;62.622;17.912;2023-04-08T08:08:43;102774.96;;;7.17;38.31
44351;BME280;62766;62.622;17.912;2023-04-08T08:11:12;102778.61;;;7.15;38.35
44351;BME280;62766;62.622;17.912;2023-04-08T08:13:41;102777.91;;;7.00;38.34
44351;BME280;62766;62.622;17.912;2023-04-08T08:16:09;102777.22;;;7.14;38.34
44351;BME280;62766;62.622;17.912;2023-04-08T08:18:37;102779.00;;;7.12;38.54
44351;BME280;62766;62.622;17.912;2023-04-08T08:21:06;102782.04;;;7.16;38.67
44351;BME280;62766;62.622;17.912;2023-04-08T08:23:34;102775.81;;;7.32;38.35
44351;BME280;62766;62.622;17.912;2023-04-08T08:26:05;102777.68;;;7.70;38.16
44351;BME280;62766;62.622;17.912;2023-04-08T08:28:35;102776.28;;;7.96;37.61
44351;BME280;62766;62.622;17.912;2023-04-08T08:31:04;102775.48;;;8.62;37.19
44351;BME280;62766;62.622;17.912;2023-04-08T08:33:34;102776.06;;;8.91;35.91
44351;BME280;62766;62.622;17.912;2023-04-08T08:36:03;102775.77;;;9.18;35.47
44351;BME280;62766;62.622;17.912;2023-04-08T08:38:32;102774.98;;;9.56;35.10
44351;BME280;62766;62.622;17.912;2023-04-08T08:41:00;102773.88;;;9.61;34.32
44351;BME280;62766;62.622;17.912;2023-04-08T08:43:29;102774.08;;;9.62;34.16
44351;BME280;62766;62.622;17.912;2023-04-08T08:45:57;102773.75;;;9.73;34.03
44351;BME280;62766;62.622;17.912;2023-04-08T08:48:25;102777.15;;;9.50;34.06
44351;BME280;62766;62.622;17.912;2023-04-08T08:50:53;102774.34;;;9.63;34.19
44351;BME280;62766;62.622;17.912;2023-04-08T08:53:28;102776.66;;;9.56;34.40
44351;BME280;62766;62.622;17.912;2023-04-08T08:55:57;102771.71;;;9.51;34.63
44351;BME280;62766;62.622;17.912;2023-04-08T08:58:26;102772.22;;;9.64;34.15
44351;BME280;62766;62.622;17.912;2023-04-08T09:00:54;102764.82;;;9.64;33.87
44351;BME280;62766;62.622;17.912;2023-04-08T09:03:24;102763.62;;;9.84;33.80
44351;BME280;62766;62.622;17.912;2023-04-08T09:05:53;102759.88;;;10.13;33.64
44351;BME280;62766;62.622;17.912;2023-04-08T09:08:24;102760.97;;;10.19;33.25
44351;BME280;62766;62.622;17.912;2023-04-08T09:10:52;102757.69;;;10.23;33.00
44351;BME280;62766;62.622;17.912;2023-04-08T09:13:21;102749.49;;;10.32;33.09
44351;BME280;62766;62.622;17.912;2023-04-08T09:16:08;102748.32;;;10.33;33.00
44351;BME280;62766;62.622;17.912;2023-04-08T09:18:36;102747.03;;;10.05;33.23
44351;BME280;62766;62.622;17.912;2023-04-08T09:21:06;102748.03;;;10.02;33.68
44351;BME280;62766;62.622;17.912;2023-04-08T09:23:37;102745.64;;;10.03;33.85
44351;BME280;62766;62.622;17.912;2023-04-08T09:26:07;102743.65;;;9.74;33.78
44351;BME280;62766;62.622;17.912;2023-04-08T09:28:37;102747.83;;;9.68;33.78
44351;BME280;62766;62.622;17.912;2023-04-08T09:31:23;102749.23;;;9.66;34.06
44351;BME280;62766;62.622;17.912;2023-04-08T09:33:54;102747.00;;;9.67;33.99
44351;BME280;62766;62.622;17.912;2023-04-08T09:36:25;102739.91;;;9.86;34.32
44351;BME280;62766;62.622;17.912;2023-04-08T09:38:53;102743.04;;;10.08;34.64
44351;BME280;62766;62.622;17.912;2023-04-08T09:41:22;102743.82;;;10.18;35.42
44351;BME280;62766;62.622;17.912;2023-04-08T09:43:52;102739.80;;;10.28;36.23
44351;BME280;62766;62.622;17.912;2023-04-08T09:46:25;102732.38;;;10.41;37.07
44351;BME280;62766;62.622;17.912;2023-04-08T09:49:00;102729.42;;;10.49;37.11
44351;BME280;62766;62.622;17.912;2023-04-08T09:51:32;102727.92;;;10.57;36.97
44351;BME280;62766;62.622;17.912;2023-04-08T09:54:10;102724.14;;;10.66;36.67
44351;BME280;62766;62.622;17.912;2023-04-08T09:56:43;102726.10;;;10.67;37.15
44351;BME280;62766;62.622;17.912;2023-04-08T09:59:17;102723.41;;;10.88;37.29
44351;BME280;62766;62.622;17.912;2023-04-08T10:03:26;102723.27;;;10.84;36.75
44351;BME280;62766;62.622;17.912;2023-04-08T10:06:00;102722.01;;;10.92;36.92
44351;BME280;62766;62.622;17.912;2023-04-08T10:08:29;102718.30;;;11.21;36.73
44351;BME280;62766;62.622;17.912;2023-04-08T10:10:59;102711.10;;;11.26;36.41
44351;BME280;62766;62.622;17.912;2023-04-08T10:13:27;102707.46;;;11.54;36.42
44351;BME280;62766;62.622;17.912;2023-04-08T10:16:18;102702.30;;;11.75;35.45
44351;BME280;62766;62.622;17.912;2023-04-08T10:18:47;102697.30;;;11.61;35.53
44351;BME280;62766;62.622;17.912;2023-04-08T10:21:30;102705.76;;;11.48;35.55
44351;BME280;62766;62.622;17.912;2023-04-08T10:24:00;102693.33;;;11.60;35.67
44351;BME280;62766;62.622;17.912;2023-04-08T10:26:30;102695.87;;;11.83;34.88
44351;BME280;62766;62.622;17.912;2023-04-08T10:29:30;102695.57;;;12.44;34.52
44351;BME280;62766;62.622;17.912;2023-04-08T10:31:59;102692.97;;;12.60;33.88
44351;BME280;62766;62.622;17.912;2023-04-08T10:34:27;102694.64;;;12.82;33.91
44351;BME280;62766;62.622;17.912;2023-04-08T10:36:56;102694.01;;;12.81;33.51
44351;BME280;62766;62.622;17.912;2023-04-08T10:39:25;102686.85;;;12.63;33.84
44351;BME280;62766;62.622;17.912;2023-04-08T10:41:54;102690.06;;;12.61;34.02
44351;BME280;62766;62.622;17.912;2023-04-08T10:44:23;102689.47;;;12.62;34.26
44351;BME280;62766;62.622;17.912;2023-04-08T10:46:53;102687.95;;;12.71;33.50
44351;BME280;62766;62.622;17.912;2023-04-08T10:49:32;102688.75;;;12.49;33.46
44351;BME280;62766;62.622;17.912;2023-04-08T10:52:06;102690.08;;;12.37;33.35
44351;BME280;62766;62.622;17.912;2023-04-08T10:54:35;102695.93;;;12.18;33.84
44351;BME280;62766;62.622;17.912;2023-04-08T10:57:04;102692.01;;;12.01;34.05
44351;BME280;62766;62.622;17.912;2023-04-08T10:59:32;102690.93;;;11.92;34.35
44351;BME280;62766;62.622;17.912;2023-04-08T11:02:01;102690.46;;;12.32;34.08
44351;BME280;62766;62.622;17.912;2023-04-08T11:04:29;102696.08;;;12.34;33.75
44351;BME280;62766;62.622;17.912;2023-04-08T11:06:57;102698.61;;;12.42;33.30
44351;BME280;62766;62.622;17.912;2023-04-08T11:09:25;102689.36;;;12.46;33.23
44351;BME280;62766;62.622;17.912;2023-04-08T11:11:54;102687.44;;;12.58;33.89
44351;BME280;62766;62.622;17.912;2023-04-08T11:14:22;102690.68;;;12.45;33.46
44351;BME280;62766;62.622;17.912;2023-04-08T11:16:52;102686.95;;;12.58;33.31
44351;BME280;62766;62.622;17.912;2023-04-08T11:19:20;102683.44;;;12.83;33.10
44351;BME280;62766;62.622;17.912;2023-04-08T11:21:50;102680.72;;;12.84;32.90
44351;BME280;62766;62.622;17.912;2023-04-08T11:24:20;102680.39;;;12.77;32.19
44351;BME280;62766;62.622;17.912;2023-04-08T11:26:48;102678.36;;;12.70;32.15
44351;BME280;62766;62.622;17.912;2023-04-08T11:29:18;102673.71;;;12.65;32.56
44351;BME280;62766;62.622;17.912;2023-04-08T11:31:47;102673.35;;;12.66;32.60
44351;BME280;62766;62.622;17.912;2023-04-08T11:34:21;102674.92;;;12.96;32.26
44351;BME280;62766;62.622;17.912;2023-04-08T11:36:51;102668.13;;;13.14;31.87
44351;BME280;62766;62.622;17.912;2023-04-08T11:39:21;102662.43;;;13.10;31.59
44351;BME280;62766;62.622;17.912;2023-04-08T11:41:50;102661.76;;;13.05;31.58
44351;BME280;62766;62.622;17.912;2023-04-08T11:44:27;102656.56;;;13.33;31.60
44351;BME280;62766;62.622;17.912;2023-04-08T11:46:56;102656.24;;;13.34;31.19
44351;BME280;62766;62.622;17.912;2023-04-08T11:49:24;102648.87;;;13.42;31.19
44351;BME280;62766;62.622;17.912;2023-04-08T11:51:54;102645.54;;;13.52;31.37
44351;BME280;62766;62.622;17.912;2023-04-08T11:54:26;102647.38;;;13.64;30.70
44351;BME280;62766;62.622;17.912;2023-04-08T11:56:54;102644.98;;;13.65;30.66
44351;BME280;62766;62.622;17.912;2023-04-08T11:59:22;102645.17;;;13.79;30.35
44351;BME280;62766;62.622;17.912;2023-04-08T12:01:50;102646.95;;;13.97;30.43
44351;BME280;62766;62.622;17.912;2023-04-08T12:04:20;102645.57;;;14.03;30.07
44351;BME280;62766;62.622;17.912;2023-04-08T12:06:48;102636.47;;;13.97;30.13
44351;BME280;62766;62.622;17.912;2023-04-08T12:09:17;102637.68;;;14.11;30.20
44351;BME280;62766;62.622;17.912;2023-04-08T12:11:47;102636.93;;;14.15;29.68
44351;BME280;62766;62.622;17.912;2023-04-08T12:14:15;102635.97;;;14.17;29.42
44351;BME280;62766;62.622;17.912;2023-04-08T12:16:43;102630.04;;;14.15;29.00
44351;BME280;62766;62.622;17.912;2023-04-08T12:19:11;102633.81;;;13.91;29.88
44351;BME280;62766;62.622;17.912;2023-04-08T12:21:39;102632.62;;;14.00;29.61
44351;BME280;62766;62.622;17.912;2023-04-08T12:24:08;102633.21;;;14.06;29.40
44351;BME280;62766;62.622;17.912;2023-04-08T12:26:36;102630.70;;;14.03;29.50
44351;BME280;62766;62.622;17.912;2023-04-08T12:29:04;102631.70;;;14.14;29.70
44351;BME280;62766;62.622;17.912;2023-04-08T12:31:32;102632.44;;;14.38;29.46
44351;BME280;62766;62.622;17.912;2023-04-08T12:34:01;102628.97;;;14.23;29.15
44351;BME280;62766;62.622;17.912;2023-04-08T12:36:29;102623.14;;;14.21;29.22
44351;BME280;62766;62.622;17.912;2023-04-08T12:38:57;102624.37;;;14.21;29.05
44351;BME280;62766;62.622;17.912;2023-04-08T12:41:25;102619.88;;;14.09;29.02
44351;BME280;62766;62.622;17.912;2023-04-08T12:43:53;102622.80;;;14.40;28.94
44351;BME280;62766;62.622;17.912;2023-04-08T12:46:22;102624.61;;;14.47;28.58
44351;BME280;62766;62.622;17.912;2023-04-08T12:48:50;102625.59;;;14.27;28.90
44351;BME280;62766;62.622;17.912;2023-04-08T12:51:19;102624.09;;;14.42;28.73
44351;BME280;62766;62.622;17.912;2023-04-08T12:53:48;102627.38;;;14.34;28.43
44351;BME280;62766;62.622;17.912;2023-04-08T12:56:17;102625.52;;;14.53;28.55
44351;BME280;62766;62.622;17.912;2023-04-08T12:58:46;102618.89;;;14.56;28.47
44351;BME280;62766;62.622;17.912;2023-04-08T13:01:14;102618.18;;;14.61;28.20